createdAt,value
2022-08-11T00:01:28.521Z,23.27
2022-08-11T00:03:56.896Z,23.26
2022-08-11T00:06:29.365Z,23.23
2022-08-11T00:08:58.408Z,23.21
2022-08-11T00:11:53.322Z,23.18
2022-08-11T00:14:37.260Z,23.12
2022-08-11T00:17:09.313Z,23.07
2022-08-11T00:20:14.326Z,23.00
2022-08-11T00:22:41.350Z,22.90
2022-08-11T00:25:14.442Z,22.85
2022-08-11T00:27:42.130Z,22.81
2022-08-11T00:30:11.317Z,22.77
2022-08-11T00:32:44.466Z,22.74
2022-08-11T00:35:55.151Z,22.70
2022-08-11T00:38:07.291Z,22.67
2022-08-11T00:41:13.116Z,22.66
2022-08-11T00:43:49.170Z,22.63
2022-08-11T00:46:46.728Z,22.63
2022-08-11T00:49:30.828Z,22.60
2022-08-11T00:52:17.917Z,22.58
2022-08-11T00:54:57.006Z,22.56
2022-08-11T00:57:56.062Z,22.56
2022-08-11T01:00:27.212Z,22.54
2022-08-11T01:03:19.082Z,22.52
2022-08-11T01:06:27.162Z,22.52
2022-08-11T01:09:30.525Z,22.49
2022-08-11T01:12:42.344Z,22.47
2022-08-11T01:16:17.736Z,22.44
2022-08-11T01:19:12.548Z,22.41
2022-08-11T01:22:03.941Z,22.40
2022-08-11T01:24:42.687Z,22.39
2022-08-11T01:27:28.301Z,22.38
2022-08-11T01:30:24.288Z,22.37
2022-08-11T01:33:36.564Z,22.35
2022-08-11T01:36:12.406Z,22.33
2022-08-11T01:38:59.866Z,22.32
2022-08-11T01:42:03.941Z,22.29
2022-08-11T01:44:45.879Z,22.24
2022-08-11T01:47:52.505Z,22.21
2022-08-11T01:50:23.512Z,22.17
2022-08-11T01:53:01.939Z,22.12
2022-08-11T01:55:51.154Z,22.09
2022-08-11T01:58:39.524Z,22.04
2022-08-11T02:01:41.200Z,22.02
2022-08-11T02:04:34.344Z,21.99
2022-08-11T02:07:17.793Z,21.99
2022-08-11T02:10:22.951Z,21.99
2022-08-11T02:13:01.179Z,21.99
2022-08-11T02:15:45.553Z,21.98
2022-08-11T02:18:24.010Z,21.99
2022-08-11T02:21:26.034Z,21.98
2022-08-11T02:24:07.247Z,21.97
2022-08-11T02:26:49.964Z,21.95
2022-08-11T02:29:24.766Z,21.96
2022-08-11T02:32:29.847Z,21.93
2022-08-11T02:35:16.241Z,21.90
2022-08-11T02:37:56.682Z,21.90
2022-08-11T02:40:57.210Z,21.88
2022-08-11T02:43:37.326Z,21.87
2022-08-11T02:46:22.186Z,21.87
2022-08-11T02:49:17.085Z,21.85
2022-08-11T02:52:05.513Z,21.84
2022-08-11T02:54:50.763Z,21.79
2022-08-11T02:57:43.697Z,21.75
2022-08-11T03:00:16.732Z,21.68
2022-08-11T03:03:22.351Z,21.65
2022-08-11T03:06:03.640Z,21.59
2022-08-11T03:08:49.579Z,21.56
2022-08-11T03:11:44.683Z,21.51
2022-08-11T03:14:40.088Z,21.44
2022-08-11T03:17:16.042Z,21.37
2022-08-11T03:20:12.911Z,21.30
2022-08-11T03:23:03.405Z,21.24
2022-08-11T03:25:59.167Z,21.22
2022-08-11T03:28:42.284Z,21.21
2022-08-11T03:31:31.332Z,21.18
2022-08-11T03:34:22.597Z,21.12
2022-08-11T03:37:39.319Z,21.09
2022-08-11T03:40:46.571Z,21.07
2022-08-11T03:43:29.650Z,21.05
2022-08-11T03:46:45.542Z,21.06
2022-08-11T03:49:39.348Z,21.05
2022-08-11T03:52:20.534Z,21.08
2022-08-11T03:55:14.287Z,21.09
2022-08-11T03:58:14.494Z,21.08
2022-08-11T04:01:13.031Z,21.10
2022-08-11T04:03:49.123Z,21.08
2022-08-11T04:06:37.850Z,21.06
2022-08-11T04:09:29.430Z,21.08
2022-08-11T04:12:09.484Z,21.07
2022-08-11T04:15:42.613Z,21.08
2022-08-11T04:18:28.098Z,21.09
2022-08-11T04:21:42.936Z,21.08
2022-08-11T04:24:54.373Z,21.07
2022-08-11T04:27:36.765Z,21.06
2022-08-11T04:30:15.113Z,21.06
2022-08-11T04:32:59.165Z,21.03
2022-08-11T04:35:51.167Z,21.00
2022-08-11T04:38:55.447Z,20.93
2022-08-11T04:42:31.006Z,20.88
2022-08-11T04:45:31.188Z,20.84
2022-08-11T04:48:42.457Z,20.84
2022-08-11T04:52:07.179Z,20.83
2022-08-11T04:55:15.447Z,20.81
2022-08-11T04:58:31.216Z,20.79
2022-08-11T05:01:41.631Z,20.78
2022-08-11T05:05:16.046Z,20.74
2022-08-11T05:08:23.832Z,20.74
2022-08-11T05:11:15.570Z,20.75
2022-08-11T05:14:06.805Z,20.72
2022-08-11T05:17:13.275Z,20.71
2022-08-11T05:20:04.473Z,20.69
2022-08-11T05:22:50.458Z,20.69
2022-08-11T05:26:43.829Z,20.70
2022-08-11T05:28:59.634Z,20.68
2022-08-11T05:31:54.021Z,20.68
2022-08-11T05:34:47.798Z,20.73
2022-08-11T05:37:39.347Z,20.72
2022-08-11T05:40:28.303Z,20.72
2022-08-11T05:43:19.628Z,20.73
2022-08-11T05:46:17.788Z,20.74
2022-08-11T05:49:03.822Z,20.77
2022-08-11T05:51:55.410Z,20.81
2022-08-11T05:54:46.170Z,20.81
2022-08-11T05:57:48.301Z,20.83
2022-08-11T06:00:11.030Z,20.84
2022-08-11T06:02:47.100Z,20.86
2022-08-11T06:05:14.500Z,20.89
2022-08-11T06:07:48.499Z,20.90
2022-08-11T06:10:27.387Z,20.85
2022-08-11T06:12:56.178Z,20.81
2022-08-11T06:15:25.528Z,20.82
2022-08-11T06:17:54.164Z,20.79
2022-08-11T06:20:22.798Z,20.79
2022-08-11T06:22:59.022Z,20.81
2022-08-11T06:25:36.043Z,20.81
2022-08-11T06:28:08.816Z,20.84
2022-08-11T06:30:44.369Z,20.89
2022-08-11T06:33:19.366Z,20.89
2022-08-11T06:35:48.666Z,20.93
2022-08-11T06:38:39.360Z,20.94
2022-08-11T06:41:30.730Z,20.97
2022-08-11T06:44:14.783Z,20.98
2022-08-11T06:46:51.350Z,21.02
2022-08-11T06:49:42.845Z,21.07
2022-08-11T06:52:35.633Z,21.10
2022-08-11T06:55:56.697Z,21.16
2022-08-11T06:58:50.223Z,21.20
2022-08-11T07:01:27.792Z,21.26
2022-08-11T07:04:04.841Z,21.32
2022-08-11T07:07:34.274Z,21.38
2022-08-11T07:10:48.880Z,21.45
2022-08-11T07:13:44.831Z,21.50
2022-08-11T07:16:18.623Z,21.54
2022-08-11T07:19:16.544Z,21.57
2022-08-11T07:22:04.759Z,21.62
2022-08-11T07:25:11.358Z,21.68
2022-08-11T07:28:03.461Z,21.72
2022-08-11T07:30:34.789Z,21.79
2022-08-11T07:33:03.934Z,21.83
2022-08-11T07:35:35.605Z,21.86
2022-08-11T07:38:20.641Z,21.92
2022-08-11T07:40:51.253Z,21.97
2022-08-11T07:43:18.185Z,22.04
2022-08-11T07:46:05.312Z,22.08
2022-08-11T07:48:53.504Z,22.16
2022-08-11T07:51:39.289Z,22.22
2022-08-11T07:54:16.625Z,22.33
2022-08-11T07:56:55.255Z,22.61
2022-08-11T08:00:04.258Z,22.92
2022-08-11T08:02:51.396Z,23.02
2022-08-11T08:05:37.454Z,23.03
2022-08-11T08:08:25.586Z,23.01
2022-08-11T08:11:13.371Z,23.02
2022-08-11T08:13:59.942Z,23.05
2022-08-11T08:16:45.492Z,23.07
2022-08-11T08:19:16.690Z,23.09
2022-08-11T08:21:45.710Z,23.09
2022-08-11T08:24:13.343Z,23.10
2022-08-11T08:27:01.266Z,23.12
2022-08-11T08:29:50.312Z,23.16
2022-08-11T08:32:18.660Z,23.16
2022-08-11T08:34:46.720Z,23.15
2022-08-11T08:37:15.668Z,23.16
2022-08-11T08:40:01.853Z,23.22
2022-08-11T08:42:32.160Z,23.26
2022-08-11T08:45:12.110Z,23.28
2022-08-11T08:47:43.482Z,23.34
2022-08-11T08:50:16.591Z,23.39
2022-08-11T08:52:52.567Z,23.47
2022-08-11T08:55:21.114Z,23.51
2022-08-11T08:57:50.862Z,23.55
2022-08-11T09:00:23.166Z,23.60
2022-08-11T09:02:50.876Z,23.64
2022-08-11T09:05:19.525Z,23.71
2022-08-11T09:07:51.393Z,23.76
2022-08-11T09:10:20.206Z,23.84
2022-08-11T09:12:48.487Z,23.90
2022-08-11T09:15:19.842Z,23.97
2022-08-11T09:18:03.818Z,24.09
2022-08-11T09:20:36.194Z,24.19
2022-08-11T09:26:30.304Z,24.48
2022-08-11T09:28:59.313Z,24.63
2022-08-11T09:31:27.174Z,24.77
2022-08-11T09:33:55.638Z,24.88
2022-08-11T09:36:41.749Z,25.05
2022-08-11T09:39:31.123Z,25.19
2022-08-11T09:42:03.426Z,25.29
2022-08-11T09:44:49.210Z,25.41
2022-08-11T09:47:29.041Z,25.53
2022-08-11T09:50:01.308Z,25.61
2022-08-11T09:52:57.143Z,25.64
2022-08-11T09:55:28.284Z,25.72
2022-08-11T09:58:42.991Z,25.80
2022-08-11T10:01:02.871Z,25.89
2022-08-11T10:03:33.257Z,26.00
2022-08-11T10:06:33.235Z,26.11
2022-08-11T10:09:06.471Z,26.21
2022-08-11T10:11:36.830Z,26.28
2022-08-11T10:14:33.946Z,26.38
2022-08-11T10:17:06.626Z,26.48
2022-08-11T10:19:37.004Z,26.55
2022-08-11T10:22:24.678Z,26.69
2022-08-11T10:25:19.801Z,26.85
2022-08-11T10:28:28.200Z,26.93
2022-08-11T10:30:56.286Z,26.93
2022-08-11T10:33:57.571Z,26.99
2022-08-11T10:36:28.874Z,26.94
2022-08-11T10:38:57.909Z,26.96
2022-08-11T10:42:07.746Z,27.05
2022-08-11T10:44:57.761Z,27.12
2022-08-11T10:47:35.111Z,27.13
2022-08-11T10:50:28.119Z,27.26
2022-08-11T10:53:16.502Z,27.26
2022-08-11T10:58:52.527Z,27.35
2022-08-11T11:01:32.747Z,27.38
2022-08-11T11:04:07.925Z,27.40
2022-08-11T11:06:52.729Z,27.44
2022-08-11T11:09:32.673Z,27.51
2022-08-11T11:12:29.834Z,27.59
2022-08-11T11:15:20.412Z,27.64
2022-08-11T11:18:02.347Z,27.71
2022-08-11T11:20:49.325Z,27.78
2022-08-11T11:23:42.002Z,27.83
2022-08-11T11:26:28.020Z,27.89
2022-08-11T11:29:13.406Z,27.89
2022-08-11T11:31:51.866Z,27.91
2022-08-11T11:34:53.288Z,27.95
2022-08-11T11:37:23.191Z,28.02
2022-08-11T11:39:50.836Z,28.07
2022-08-11T11:42:18.888Z,28.19
2022-08-11T11:44:48.086Z,28.22
2022-08-11T11:47:18.335Z,28.26
2022-08-11T11:49:46.222Z,28.31
2022-08-11T11:52:19.295Z,28.38
2022-08-11T11:54:51.231Z,28.38
2022-08-11T11:57:39.215Z,28.38
2022-08-11T12:00:32.889Z,28.42
2022-08-11T12:03:03.940Z,28.48
2022-08-11T12:05:34.059Z,28.53
2022-08-11T12:08:18.163Z,28.58
2022-08-11T12:11:11.282Z,28.66
2022-08-11T12:13:43.865Z,28.66
2022-08-11T12:16:34.518Z,28.70
2022-08-11T12:19:03.776Z,28.77
2022-08-11T12:21:31.186Z,28.84
2022-08-11T12:24:19.769Z,28.83
2022-08-11T12:27:14.989Z,28.85
2022-08-11T12:29:41.250Z,28.83
2022-08-11T12:32:11.591Z,28.89
2022-08-11T12:34:38.648Z,28.91
2022-08-11T12:37:13.084Z,28.94
2022-08-11T12:40:15.977Z,28.96
2022-08-11T12:43:21.112Z,29.01
2022-08-11T12:45:54.342Z,28.98
2022-08-11T12:49:00.765Z,28.96
2022-08-11T12:52:11.245Z,29.01
2022-08-11T12:54:59.198Z,29.08
2022-08-11T12:57:54.361Z,29.13
2022-08-11T13:00:41.023Z,29.18
2022-08-11T13:03:28.625Z,29.25
2022-08-11T13:05:59.174Z,29.23
2022-08-11T13:08:28.102Z,29.22
2022-08-11T13:11:16.035Z,29.25
2022-08-11T13:13:54.215Z,29.30
2022-08-11T13:16:29.495Z,29.34
2022-08-11T13:18:59.082Z,29.36
2022-08-11T13:21:27.720Z,29.40
2022-08-11T13:24:00.537Z,29.43
2022-08-11T13:26:46.759Z,29.46
2022-08-11T13:29:25.541Z,29.49
2022-08-11T13:31:56.271Z,29.49
2022-08-11T13:34:27.037Z,29.51
2022-08-11T13:36:57.236Z,29.55
2022-08-11T13:39:26.650Z,29.62
2022-08-11T13:41:59.655Z,29.69
2022-08-11T13:44:30.351Z,29.73
2022-08-11T13:47:04.399Z,29.77
2022-08-11T13:49:35.121Z,29.76
2022-08-11T13:52:03.911Z,29.77
2022-08-11T13:54:35.034Z,29.79
2022-08-11T13:57:08.989Z,29.78
2022-08-11T13:59:49.969Z,29.77
2022-08-11T14:02:31.006Z,29.75
2022-08-11T14:05:13.343Z,29.73
2022-08-11T14:07:45.826Z,29.71
2022-08-11T14:10:14.958Z,29.68
2022-08-11T14:13:17.929Z,29.68
2022-08-11T14:15:48.422Z,29.68
2022-08-11T14:18:21.953Z,29.67
2022-08-11T14:21:11.555Z,29.68
2022-08-11T14:23:41.800Z,29.67
2022-08-11T14:26:29.255Z,29.67
2022-08-11T14:32:10.206Z,29.67
2022-08-11T14:34:41.366Z,29.65
2022-08-11T14:37:19.112Z,29.67
2022-08-11T14:39:50.879Z,29.69
2022-08-11T14:42:38.363Z,29.68
2022-08-11T14:45:57.699Z,29.69
2022-08-11T14:48:23.917Z,29.68
2022-08-11T14:50:51.119Z,29.66
2022-08-11T14:53:18.956Z,29.67
2022-08-11T14:56:15.929Z,29.66
2022-08-11T14:58:43.634Z,29.65
2022-08-11T15:01:30.993Z,29.67
2022-08-11T15:04:27.388Z,29.69
2022-08-11T15:06:48.213Z,29.66
2022-08-11T15:09:16.086Z,29.64
2022-08-11T15:12:03.618Z,29.64
2022-08-11T15:14:49.177Z,29.65
2022-08-11T15:17:23.309Z,29.64
2022-08-11T15:20:16.207Z,29.64
2022-08-11T15:23:01.809Z,29.61
2022-08-11T15:25:31.136Z,29.58
2022-08-11T15:28:18.644Z,29.54
2022-08-11T15:31:05.718Z,29.53
2022-08-11T15:33:54.428Z,29.54
2022-08-11T15:36:41.099Z,29.54
2022-08-11T15:39:19.518Z,29.54
2022-08-11T15:42:20.544Z,29.50
2022-08-11T15:45:19.636Z,29.46
2022-08-11T15:48:05.029Z,29.44
2022-08-11T15:50:34.817Z,29.46
2022-08-11T15:53:14.403Z,29.44
2022-08-11T15:55:43.810Z,29.44
2022-08-11T15:58:32.458Z,29.42
2022-08-11T16:01:20.568Z,29.40
2022-08-11T16:04:13.994Z,29.40
2022-08-11T16:07:03.701Z,29.37
2022-08-11T16:09:48.078Z,29.35
2022-08-11T16:12:23.377Z,29.31
2022-08-11T16:15:14.934Z,29.30
2022-08-11T16:17:57.889Z,29.29
2022-08-11T16:20:27.182Z,29.31
2022-08-11T16:23:02.009Z,29.27
2022-08-11T16:27:03.733Z,29.29
2022-08-11T16:28:21.912Z,29.30
2022-08-11T16:30:51.258Z,29.31
2022-08-11T16:33:48.646Z,29.30
2022-08-11T16:36:28.056Z,29.28
2022-08-11T16:38:57.100Z,29.25
2022-08-11T16:41:46.433Z,29.24
2022-08-11T16:44:37.686Z,29.21
2022-08-11T16:47:12.369Z,29.21
2022-08-11T16:49:50.638Z,29.20
2022-08-11T16:52:20.854Z,29.20
2022-08-11T16:54:47.971Z,29.17
2022-08-11T16:57:50.356Z,29.16
2022-08-11T17:00:17.764Z,29.12
2022-08-11T17:03:15.589Z,29.11
2022-08-11T17:06:07.890Z,29.10
2022-08-11T17:09:07.533Z,29.08
2022-08-11T17:12:14.872Z,29.07
2022-08-11T17:14:50.993Z,29.03
2022-08-11T17:17:39.097Z,29.01
2022-08-11T17:20:40.620Z,29.01
2022-08-11T17:23:16.510Z,28.99
2022-08-11T17:25:59.591Z,28.98
2022-08-11T17:28:32.340Z,28.97
2022-08-11T17:31:22.343Z,28.92
2022-08-11T17:34:14.788Z,28.89
2022-08-11T17:36:45.854Z,28.88
2022-08-11T17:39:14.783Z,28.84
2022-08-11T17:42:02.279Z,28.83
2022-08-11T17:44:50.983Z,28.81
2022-08-11T17:47:38.824Z,28.80
2022-08-11T17:50:09.215Z,28.78
2022-08-11T17:53:03.592Z,28.75
2022-08-11T17:55:53.629Z,28.75
2022-08-11T17:58:40.642Z,28.73
2022-08-11T18:01:11.100Z,28.72
2022-08-11T18:03:40.903Z,28.68
2022-08-11T18:06:12.915Z,28.67
2022-08-11T18:09:02.388Z,28.66
2022-08-11T18:12:06.881Z,28.63
2022-08-11T18:14:58.629Z,28.59
2022-08-11T18:17:44.269Z,28.57
2022-08-11T18:20:29.903Z,28.52
2022-08-11T18:23:16.937Z,28.49
2022-08-11T18:26:07.041Z,28.47
2022-08-11T18:29:02.055Z,28.44
2022-08-11T18:31:50.098Z,28.42
2022-08-11T18:34:39.216Z,28.38
2022-08-11T18:37:34.278Z,28.35
2022-08-11T18:40:26.244Z,28.31
2022-08-11T18:43:16.491Z,28.27
2022-08-11T18:46:06.496Z,28.21
2022-08-11T18:48:57.865Z,28.20
2022-08-11T18:51:45.504Z,28.17
2022-08-11T18:54:32.574Z,28.14
2022-08-11T18:57:22.132Z,28.08
2022-08-11T19:00:10.326Z,28.04
2022-08-11T19:02:58.513Z,28.01
2022-08-11T19:06:33.713Z,27.98
2022-08-11T19:08:58.429Z,27.94
2022-08-11T19:11:45.446Z,27.91
2022-08-11T19:14:32.182Z,27.86
2022-08-11T19:17:43.564Z,27.82
2022-08-11T19:20:35.385Z,27.76
2022-08-11T19:23:24.611Z,27.70
2022-08-11T19:26:10.593Z,27.67
2022-08-11T19:28:58.314Z,27.63
2022-08-11T19:31:45.314Z,27.59
2022-08-11T19:34:37.550Z,27.55
2022-08-11T19:37:25.849Z,27.54
2022-08-11T19:40:22.709Z,27.50
2022-08-11T19:43:14.768Z,27.46
2022-08-11T19:46:14.072Z,27.42
2022-08-11T19:49:02.247Z,27.38
2022-08-11T19:51:54.639Z,27.35
2022-08-11T19:54:47.979Z,27.33
2022-08-11T19:57:39.525Z,27.28
2022-08-11T20:00:30.469Z,27.24
2022-08-11T20:03:18.275Z,27.21
2022-08-11T20:06:05.916Z,27.19
2022-08-11T20:08:58.184Z,27.17
2022-08-11T20:11:44.891Z,27.14
2022-08-11T20:14:33.322Z,27.09
2022-08-11T20:17:20.914Z,27.07
2022-08-11T20:20:08.519Z,27.04
2022-08-11T20:22:54.238Z,27.01
2022-08-11T20:25:42.560Z,27.00
2022-08-11T20:28:39.651Z,26.99
2022-08-11T20:31:27.624Z,26.94
2022-08-11T20:34:14.883Z,26.91
2022-08-11T20:37:03.011Z,26.86
2022-08-11T20:39:50.720Z,26.81
2022-08-11T20:42:37.422Z,26.80
2022-08-11T20:45:33.725Z,26.76
2022-08-11T20:48:21.413Z,26.75
2022-08-11T20:51:09.571Z,26.72
2022-08-11T20:54:05.718Z,26.69
2022-08-11T20:56:53.595Z,26.67
2022-08-11T20:59:50.155Z,26.63
2022-08-11T21:02:44.366Z,26.61
2022-08-11T21:06:08.468Z,26.57
2022-08-11T21:08:53.881Z,26.53
2022-08-11T21:11:41.516Z,26.50
2022-08-11T21:14:32.179Z,26.47
2022-08-11T21:17:27.565Z,26.46
2022-08-11T21:20:20.703Z,26.43
2022-08-11T21:23:10.021Z,26.41
2022-08-11T21:26:09.409Z,26.34
2022-08-11T21:28:58.379Z,26.27
2022-08-11T21:31:45.487Z,26.21
2022-08-11T21:34:34.633Z,26.15
2022-08-11T21:37:23.305Z,26.11
2022-08-11T21:40:16.808Z,26.07
2022-08-11T21:43:05.655Z,26.03
2022-08-11T21:45:54.192Z,25.99
2022-08-11T21:48:40.250Z,25.98
2022-08-11T21:51:25.899Z,25.96
2022-08-11T21:54:11.935Z,25.94
2022-08-11T21:56:59.021Z,25.92
2022-08-11T22:00:00.995Z,25.89
2022-08-11T22:02:49.017Z,25.86
2022-08-11T22:05:39.868Z,25.82
2022-08-11T22:08:26.519Z,25.79
2022-08-11T22:11:12.183Z,25.75
2022-08-11T22:14:06.313Z,25.74
2022-08-11T22:16:54.017Z,25.70
2022-08-11T22:19:40.523Z,25.67
2022-08-11T22:22:27.347Z,25.65
2022-08-11T22:25:16.310Z,25.64
2022-08-11T22:28:03.765Z,25.64
2022-08-11T22:30:49.439Z,25.61
2022-08-11T22:33:36.601Z,25.60
2022-08-11T22:36:42.365Z,25.59
2022-08-11T22:39:29.529Z,25.57
2022-08-11T22:42:24.085Z,25.53
2022-08-11T22:45:19.529Z,25.47
2022-08-11T22:48:06.516Z,25.45
2022-08-11T22:50:53.696Z,25.42
2022-08-11T22:53:57.214Z,25.38
2022-08-11T22:56:45.502Z,25.35
2022-08-11T22:59:31.569Z,25.37
2022-08-11T23:02:17.154Z,25.34
2022-08-11T23:05:15.098Z,25.30
2022-08-11T23:08:01.354Z,25.26
2022-08-11T23:10:47.432Z,25.21
2022-08-11T23:13:32.967Z,25.18
2022-08-11T23:16:19.168Z,25.12
2022-08-11T23:19:05.625Z,25.06
2022-08-11T23:21:52.921Z,25.01
2022-08-11T23:24:40.074Z,24.95
2022-08-11T23:27:28.041Z,24.89
2022-08-11T23:30:16.982Z,24.87
2022-08-11T23:33:07.084Z,24.85
2022-08-11T23:35:57.882Z,24.84
2022-08-11T23:38:47.001Z,24.80
2022-08-11T23:41:34.209Z,24.77
2022-08-11T23:44:20.816Z,24.75
2022-08-11T23:47:09.411Z,24.74
2022-08-11T23:49:55.968Z,24.69
2022-08-11T23:52:44.462Z,24.67
2022-08-11T23:55:34.027Z,24.63
2022-08-11T23:58:19.622Z,24.61
